sensor_id;sensor_type;location;lat;lon;timestamp;P1;durP1;ratioP1;P2;durP2;ratioP2
17614;SDS011;8926;49.720;6.576;2023-07-24T00:01:56;1.00;;;1.00;;
17614;SDS011;8926;49.720;6.576;2023-07-24T00:04:21;1.10;;;1.10;;
17614;SDS011;8926;49.720;6.576;2023-07-24T00:06:47;1.13;;;1.13;;
17614;SDS011;8926;49.720;6.576;2023-07-24T00:09:12;1.33;;;1.30;;
17614;SDS011;8926;49.720;6.576;2023-07-24T00:11:37;0.90;;;0.90;;
17614;SDS011;8926;49.720;6.576;2023-07-24T00:14:02;1.10;;;1.10;;
17614;SDS011;8926;49.720;6.576;2023-07-24T00:16:28;1.20;;;1.20;;
17614;SDS011;8926;49.720;6.576;2023-07-24T00:18:53;0.97;;;0.97;;
17614;SDS011;8926;49.720;6.576;2023-07-24T00:21:19;0.90;;;0.90;;
17614;SDS011;8926;49.720;6.576;2023-07-24T00:23:44;1.33;;;1.23;;
17614;SDS011;8926;49.720;6.576;2023-07-24T00:26:09;1.20;;;1.20;;
17614;SDS011;8926;49.720;6.576;2023-07-24T00:28:34;1.20;;;1.10;;
17614;SDS011;8926;49.720;6.576;2023-07-24T00:31:00;1.20;;;1.20;;
17614;SDS011;8926;49.720;6.576;2023-07-24T00:33:25;1.37;;;1.27;;
17614;SDS011;8926;49.720;6.576;2023-07-24T00:35:50;1.37;;;1.37;;
17614;SDS011;8926;49.720;6.576;2023-07-24T00:38:15;1.40;;;1.30;;
17614;SDS011;8926;49.720;6.576;2023-07-24T00:40:41;1.17;;;1.17;;
17614;SDS011;8926;49.720;6.576;2023-07-24T00:43:06;1.40;;;1.30;;
17614;SDS011;8926;49.720;6.576;2023-07-24T00:45:31;1.37;;;1.37;;
17614;SDS011;8926;49.720;6.576;2023-07-24T00:47:58;1.00;;;1.00;;
17614;SDS011;8926;49.720;6.576;2023-07-24T00:50:24;1.33;;;1.27;;
17614;SDS011;8926;49.720;6.576;2023-07-24T00:52:49;1.40;;;1.30;;
17614;SDS011;8926;49.720;6.576;2023-07-24T00:55:15;1.67;;;1.57;;
17614;SDS011;8926;49.720;6.576;2023-07-24T00:57:41;1.37;;;1.27;;
17614;SDS011;8926;49.720;6.576;2023-07-24T01:00:07;1.00;;;1.00;;
17614;SDS011;8926;49.720;6.576;2023-07-24T01:02:33;1.33;;;1.30;;
17614;SDS011;8926;49.720;6.576;2023-07-24T01:04:59;1.10;;;1.10;;
17614;SDS011;8926;49.720;6.576;2023-07-24T01:07:24;1.20;;;1.20;;
17614;SDS011;8926;49.720;6.576;2023-07-24T01:09:50;1.20;;;1.20;;
17614;SDS011;8926;49.720;6.576;2023-07-24T01:15:09;1.13;;;1.13;;
17614;SDS011;8926;49.720;6.576;2023-07-24T01:17:41;1.40;;;1.30;;
17614;SDS011;8926;49.720;6.576;2023-07-24T01:20:12;1.53;;;1.43;;
17614;SDS011;8926;49.720;6.576;2023-07-24T01:23:00;1.30;;;1.30;;
17614;SDS011;8926;49.720;6.576;2023-07-24T01:25:34;1.80;;;1.70;;
17614;SDS011;8926;49.720;6.576;2023-07-24T01:28:00;1.90;;;1.80;;
17614;SDS011;8926;49.720;6.576;2023-07-24T01:30:26;1.30;;;1.30;;
17614;SDS011;8926;49.720;6.576;2023-07-24T01:32:51;1.20;;;1.20;;
17614;SDS011;8926;49.720;6.576;2023-07-24T01:35:17;1.37;;;1.27;;
17614;SDS011;8926;49.720;6.576;2023-07-24T01:37:42;1.20;;;1.10;;
17614;SDS011;8926;49.720;6.576;2023-07-24T01:40:10;1.00;;;1.00;;
17614;SDS011;8926;49.720;6.576;2023-07-24T01:42:36;1.00;;;1.00;;
17614;SDS011;8926;49.720;6.576;2023-07-24T01:45:02;1.10;;;1.10;;
17614;SDS011;8926;49.720;6.576;2023-07-24T01:47:28;1.10;;;1.10;;
17614;SDS011;8926;49.720;6.576;2023-07-24T01:49:54;1.30;;;1.20;;
17614;SDS011;8926;49.720;6.576;2023-07-24T01:52:20;1.30;;;1.20;;
17614;SDS011;8926;49.720;6.576;2023-07-24T01:54:45;1.47;;;1.40;;
17614;SDS011;8926;49.720;6.576;2023-07-24T01:57:11;1.53;;;1.43;;
17614;SDS011;8926;49.720;6.576;2023-07-24T01:59:36;1.10;;;1.10;;
17614;SDS011;8926;49.720;6.576;2023-07-24T02:02:01;1.17;;;1.17;;
17614;SDS011;8926;49.720;6.576;2023-07-24T02:04:27;1.00;;;1.00;;
17614;SDS011;8926;49.720;6.576;2023-07-24T02:06:52;1.30;;;1.30;;
17614;SDS011;8926;49.720;6.576;2023-07-24T02:09:18;1.60;;;1.50;;
17614;SDS011;8926;49.720;6.576;2023-07-24T02:11:43;1.20;;;1.20;;
17614;SDS011;8926;49.720;6.576;2023-07-24T02:14:08;1.57;;;1.47;;
17614;SDS011;8926;49.720;6.576;2023-07-24T02:16:35;1.40;;;1.30;;
17614;SDS011;8926;49.720;6.576;2023-07-24T02:19:00;1.60;;;1.50;;
17614;SDS011;8926;49.720;6.576;2023-07-24T02:21:25;1.20;;;1.20;;
17614;SDS011;8926;49.720;6.576;2023-07-24T02:23:51;1.77;;;1.67;;
17614;SDS011;8926;49.720;6.576;2023-07-24T02:26:16;1.80;;;1.70;;
17614;SDS011;8926;49.720;6.576;2023-07-24T02:28:41;1.73;;;1.63;;
17614;SDS011;8926;49.720;6.576;2023-07-24T02:31:07;1.77;;;1.67;;
17614;SDS011;8926;49.720;6.576;2023-07-24T02:33:32;1.63;;;1.60;;
17614;SDS011;8926;49.720;6.576;2023-07-24T02:35:57;2.37;;;2.27;;
17614;SDS011;8926;49.720;6.576;2023-07-24T02:38:22;1.63;;;1.53;;
17614;SDS011;8926;49.720;6.576;2023-07-24T02:40:48;1.50;;;1.40;;
17614;SDS011;8926;49.720;6.576;2023-07-24T02:43:14;1.80;;;1.70;;
17614;SDS011;8926;49.720;6.576;2023-07-24T02:45:40;2.17;;;2.07;;
17614;SDS011;8926;49.720;6.576;2023-07-24T02:48:05;1.80;;;1.70;;
17614;SDS011;8926;49.720;6.576;2023-07-24T02:50:31;2.13;;;1.90;;
17614;SDS011;8926;49.720;6.576;2023-07-24T02:52:58;1.97;;;1.87;;
17614;SDS011;8926;49.720;6.576;2023-07-24T02:55:23;1.90;;;1.80;;
17614;SDS011;8926;49.720;6.576;2023-07-24T02:57:50;1.77;;;1.67;;
17614;SDS011;8926;49.720;6.576;2023-07-24T03:00:15;2.03;;;1.93;;
17614;SDS011;8926;49.720;6.576;2023-07-24T03:02:41;1.53;;;1.50;;
17614;SDS011;8926;49.720;6.576;2023-07-24T03:05:06;1.33;;;1.33;;
17614;SDS011;8926;49.720;6.576;2023-07-24T03:07:32;1.23;;;1.23;;
17614;SDS011;8926;49.720;6.576;2023-07-24T03:09:57;1.40;;;1.40;;
17614;SDS011;8926;49.720;6.576;2023-07-24T03:12:23;1.60;;;1.50;;
17614;SDS011;8926;49.720;6.576;2023-07-24T03:14:48;1.60;;;1.50;;
17614;SDS011;8926;49.720;6.576;2023-07-24T03:17:13;1.17;;;1.17;;
17614;SDS011;8926;49.720;6.576;2023-07-24T03:19:40;1.30;;;1.30;;
17614;SDS011;8926;49.720;6.576;2023-07-24T03:22:05;1.20;;;1.20;;
17614;SDS011;8926;49.720;6.576;2023-07-24T03:24:31;1.40;;;1.30;;
17614;SDS011;8926;49.720;6.576;2023-07-24T03:26:56;1.57;;;1.47;;
17614;SDS011;8926;49.720;6.576;2023-07-24T03:29:22;1.70;;;1.60;;
17614;SDS011;8926;49.720;6.576;2023-07-24T03:31:47;1.43;;;1.33;;
17614;SDS011;8926;49.720;6.576;2023-07-24T03:34:12;1.43;;;1.43;;
17614;SDS011;8926;49.720;6.576;2023-07-24T03:36:38;1.00;;;1.00;;
17614;SDS011;8926;49.720;6.576;2023-07-24T03:39:06;1.50;;;1.40;;
17614;SDS011;8926;49.720;6.576;2023-07-24T03:41:31;1.70;;;1.60;;
17614;SDS011;8926;49.720;6.576;2023-07-24T03:43:57;1.30;;;1.30;;
17614;SDS011;8926;49.720;6.576;2023-07-24T03:46:22;1.70;;;1.60;;
17614;SDS011;8926;49.720;6.576;2023-07-24T03:48:47;1.63;;;1.53;;
17614;SDS011;8926;49.720;6.576;2023-07-24T03:51:14;1.80;;;1.70;;
17614;SDS011;8926;49.720;6.576;2023-07-24T03:53:40;1.57;;;1.47;;
17614;SDS011;8926;49.720;6.576;2023-07-24T03:56:05;1.50;;;1.40;;
17614;SDS011;8926;49.720;6.576;2023-07-24T03:58:30;1.40;;;1.40;;
17614;SDS011;8926;49.720;6.576;2023-07-24T04:00:56;1.40;;;1.40;;
17614;SDS011;8926;49.720;6.576;2023-07-24T04:03:21;1.67;;;1.57;;
17614;SDS011;8926;49.720;6.576;2023-07-24T04:05:46;2.03;;;1.90;;
17614;SDS011;8926;49.720;6.576;2023-07-24T04:08:11;2.00;;;1.90;;
17614;SDS011;8926;49.720;6.576;2023-07-24T04:10:37;2.00;;;1.90;;
17614;SDS011;8926;49.720;6.576;2023-07-24T04:13:02;1.83;;;1.73;;
17614;SDS011;8926;49.720;6.576;2023-07-24T04:15:27;1.63;;;1.53;;
17614;SDS011;8926;49.720;6.576;2023-07-24T04:17:53;1.70;;;1.60;;
17614;SDS011;8926;49.720;6.576;2023-07-24T04:20:18;1.43;;;1.33;;
17614;SDS011;8926;49.720;6.576;2023-07-24T04:22:43;2.10;;;2.00;;
17614;SDS011;8926;49.720;6.576;2023-07-24T04:25:08;2.23;;;2.13;;
17614;SDS011;8926;49.720;6.576;2023-07-24T04:27:34;2.10;;;1.90;;
17614;SDS011;8926;49.720;6.576;2023-07-24T04:29:59;2.90;;;2.70;;
17614;SDS011;8926;49.720;6.576;2023-07-24T04:32:26;2.70;;;2.50;;
17614;SDS011;8926;49.720;6.576;2023-07-24T04:34:52;2.50;;;2.40;;
17614;SDS011;8926;49.720;6.576;2023-07-24T04:37:17;2.00;;;1.90;;
17614;SDS011;8926;49.720;6.576;2023-07-24T04:39:43;2.03;;;1.93;;
17614;SDS011;8926;49.720;6.576;2023-07-24T04:42:08;1.90;;;1.80;;
17614;SDS011;8926;49.720;6.576;2023-07-24T04:44:33;2.13;;;2.00;;
17614;SDS011;8926;49.720;6.576;2023-07-24T04:46:59;2.80;;;2.60;;
17614;SDS011;8926;49.720;6.576;2023-07-24T04:49:24;1.90;;;1.80;;
17614;SDS011;8926;49.720;6.576;2023-07-24T04:51:50;1.97;;;1.87;;
17614;SDS011;8926;49.720;6.576;2023-07-24T04:54:16;1.70;;;1.60;;
17614;SDS011;8926;49.720;6.576;2023-07-24T04:56:42;1.50;;;1.40;;
17614;SDS011;8926;49.720;6.576;2023-07-24T04:59:07;1.80;;;1.70;;
17614;SDS011;8926;49.720;6.576;2023-07-24T05:01:33;1.50;;;1.40;;
17614;SDS011;8926;49.720;6.576;2023-07-24T05:03:58;1.63;;;1.53;;
17614;SDS011;8926;49.720;6.576;2023-07-24T05:06:23;1.50;;;1.40;;
17614;SDS011;8926;49.720;6.576;2023-07-24T05:08:49;1.30;;;1.30;;
17614;SDS011;8926;49.720;6.576;2023-07-24T05:11:14;1.53;;;1.43;;
17614;SDS011;8926;49.720;6.576;2023-07-24T05:13:39;1.70;;;1.60;;
17614;SDS011;8926;49.720;6.576;2023-07-24T05:16:05;1.80;;;1.70;;
17614;SDS011;8926;49.720;6.576;2023-07-24T05:18:30;1.57;;;1.50;;
17614;SDS011;8926;49.720;6.576;2023-07-24T05:20:55;2.10;;;2.00;;
17614;SDS011;8926;49.720;6.576;2023-07-24T05:23:20;2.87;;;2.67;;
17614;SDS011;8926;49.720;6.576;2023-07-24T05:25:46;2.67;;;2.57;;
17614;SDS011;8926;49.720;6.576;2023-07-24T05:28:14;2.53;;;2.33;;
17614;SDS011;8926;49.720;6.576;2023-07-24T05:30:40;2.27;;;2.17;;
17614;SDS011;8926;49.720;6.576;2023-07-24T05:33:05;2.30;;;2.20;;
17614;SDS011;8926;49.720;6.576;2023-07-24T05:35:30;1.70;;;1.60;;
17614;SDS011;8926;49.720;6.576;2023-07-24T05:37:55;1.50;;;1.40;;
17614;SDS011;8926;49.720;6.576;2023-07-24T05:40:21;1.83;;;1.73;;
17614;SDS011;8926;49.720;6.576;2023-07-24T05:42:46;1.50;;;1.40;;
17614;SDS011;8926;49.720;6.576;2023-07-24T05:45:12;2.47;;;2.27;;
17614;SDS011;8926;49.720;6.576;2023-07-24T05:47:39;1.50;;;1.50;;
17614;SDS011;8926;49.720;6.576;2023-07-24T05:50:05;2.00;;;1.90;;
17614;SDS011;8926;49.720;6.576;2023-07-24T05:52:30;2.20;;;2.10;;
17614;SDS011;8926;49.720;6.576;2023-07-24T05:54:56;1.73;;;1.63;;
17614;SDS011;8926;49.720;6.576;2023-07-24T05:57:21;1.80;;;1.70;;
17614;SDS011;8926;49.720;6.576;2023-07-24T05:59:46;1.90;;;1.80;;
17614;SDS011;8926;49.720;6.576;2023-07-24T06:02:11;1.80;;;1.70;;
17614;SDS011;8926;49.720;6.576;2023-07-24T06:04:37;1.63;;;1.53;;
17614;SDS011;8926;49.720;6.576;2023-07-24T06:07:02;2.00;;;1.90;;
17614;SDS011;8926;49.720;6.576;2023-07-24T06:09:27;1.60;;;1.50;;
17614;SDS011;8926;49.720;6.576;2023-07-24T06:11:53;1.63;;;1.53;;
17614;SDS011;8926;49.720;6.576;2023-07-24T06:14:18;1.10;;;1.10;;
17614;SDS011;8926;49.720;6.576;2023-07-24T06:16:43;1.60;;;1.50;;
17614;SDS011;8926;49.720;6.576;2023-07-24T06:19:09;2.37;;;2.17;;
17614;SDS011;8926;49.720;6.576;2023-07-24T06:21:34;2.30;;;2.10;;
17614;SDS011;8926;49.720;6.576;2023-07-24T06:23:59;2.20;;;2.10;;
17614;SDS011;8926;49.720;6.576;2023-07-24T06:26:24;2.33;;;2.23;;
17614;SDS011;8926;49.720;6.576;2023-07-24T06:28:50;3.00;;;2.80;;
17614;SDS011;8926;49.720;6.576;2023-07-24T06:31:15;2.93;;;2.73;;
17614;SDS011;8926;49.720;6.576;2023-07-24T06:33:40;3.03;;;2.63;;
17614;SDS011;8926;49.720;6.576;2023-07-24T06:36:09;3.27;;;2.97;;
17614;SDS011;8926;49.720;6.576;2023-07-24T06:38:35;3.10;;;2.90;;
17614;SDS011;8926;49.720;6.576;2023-07-24T06:41:00;3.00;;;2.80;;
17614;SDS011;8926;49.720;6.576;2023-07-24T06:43:26;2.83;;;2.63;;
17614;SDS011;8926;49.720;6.576;2023-07-24T06:45:52;4.70;;;2.70;;
17614;SDS011;8926;49.720;6.576;2023-07-24T06:48:18;3.30;;;3.10;;
17614;SDS011;8926;49.720;6.576;2023-07-24T06:50:43;4.20;;;3.67;;
17614;SDS011;8926;49.720;6.576;2023-07-24T06:53:08;3.67;;;2.90;;
17614;SDS011;8926;49.720;6.576;2023-07-24T06:55:33;3.47;;;3.27;;
17614;SDS011;8926;49.720;6.576;2023-07-24T06:57:59;2.50;;;2.40;;
17614;SDS011;8926;49.720;6.576;2023-07-24T07:00:24;3.03;;;2.80;;
17614;SDS011;8926;49.720;6.576;2023-07-24T07:02:49;3.00;;;2.80;;
17614;SDS011;8926;49.720;6.576;2023-07-24T07:05:14;2.43;;;2.23;;
17614;SDS011;8926;49.720;6.576;2023-07-24T07:07:40;2.20;;;2.10;;
17614;SDS011;8926;49.720;6.576;2023-07-24T07:10:05;2.10;;;2.00;;
17614;SDS011;8926;49.720;6.576;2023-07-24T07:12:31;2.87;;;2.67;;
17614;SDS011;8926;49.720;6.576;2023-07-24T07:14:56;3.00;;;2.80;;
17614;SDS011;8926;49.720;6.576;2023-07-24T07:17:21;2.57;;;2.40;;
17614;SDS011;8926;49.720;6.576;2023-07-24T07:19:47;2.47;;;2.33;;
17614;SDS011;8926;49.720;6.576;2023-07-24T07:22:12;2.40;;;2.30;;
17614;SDS011;8926;49.720;6.576;2023-07-24T07:24:37;2.93;;;2.73;;
17614;SDS011;8926;49.720;6.576;2023-07-24T07:27:02;3.03;;;2.57;;
17614;SDS011;8926;49.720;6.576;2023-07-24T07:29:28;3.13;;;2.93;;
17614;SDS011;8926;49.720;6.576;2023-07-24T07:31:53;3.50;;;3.30;;
17614;SDS011;8926;49.720;6.576;2023-07-24T07:34:19;3.30;;;3.00;;
17614;SDS011;8926;49.720;6.576;2023-07-24T07:36:44;2.80;;;2.60;;
17614;SDS011;8926;49.720;6.576;2023-07-24T07:39:09;3.67;;;3.37;;
17614;SDS011;8926;49.720;6.576;2023-07-24T07:41:35;3.70;;;3.40;;
17614;SDS011;8926;49.720;6.576;2023-07-24T07:44:00;3.20;;;3.00;;
17614;SDS011;8926;49.720;6.576;2023-07-24T07:46:25;3.30;;;3.00;;
17614;SDS011;8926;49.720;6.576;2023-07-24T07:48:50;3.00;;;2.80;;
17614;SDS011;8926;49.720;6.576;2023-07-24T07:51:16;2.23;;;2.13;;
17614;SDS011;8926;49.720;6.576;2023-07-24T07:53:41;3.73;;;3.40;;
17614;SDS011;8926;49.720;6.576;2023-07-24T07:56:06;4.13;;;3.83;;
17614;SDS011;8926;49.720;6.576;2023-07-24T07:58:32;4.00;;;3.53;;
17614;SDS011;8926;49.720;6.576;2023-07-24T08:00:58;3.63;;;3.33;;
17614;SDS011;8926;49.720;6.576;2023-07-24T08:03:27;3.10;;;2.90;;
17614;SDS011;8926;49.720;6.576;2023-07-24T08:05:56;2.80;;;2.60;;
17614;SDS011;8926;49.720;6.576;2023-07-24T08:08:22;3.00;;;2.80;;
17614;SDS011;8926;49.720;6.576;2023-07-24T08:10:47;2.83;;;2.63;;
17614;SDS011;8926;49.720;6.576;2023-07-24T08:13:13;3.60;;;3.40;;
17614;SDS011;8926;49.720;6.576;2023-07-24T08:15:38;2.90;;;2.70;;
17614;SDS011;8926;49.720;6.576;2023-07-24T08:18:04;2.77;;;2.57;;
17614;SDS011;8926;49.720;6.576;2023-07-24T08:20:30;3.30;;;3.10;;
17614;SDS011;8926;49.720;6.576;2023-07-24T08:22:55;3.20;;;3.00;;
17614;SDS011;8926;49.720;6.576;2023-07-24T08:25:20;3.20;;;3.00;;
17614;SDS011;8926;49.720;6.576;2023-07-24T08:27:46;2.90;;;2.70;;
17614;SDS011;8926;49.720;6.576;2023-07-24T08:30:11;2.83;;;2.67;;
17614;SDS011;8926;49.720;6.576;2023-07-24T08:32:36;2.30;;;2.20;;
17614;SDS011;8926;49.720;6.576;2023-07-24T08:35:02;3.07;;;2.87;;
17614;SDS011;8926;49.720;6.576;2023-07-24T08:37:27;2.90;;;2.70;;
17614;SDS011;8926;49.720;6.576;2023-07-24T08:39:53;2.90;;;2.70;;
17614;SDS011;8926;49.720;6.576;2023-07-24T08:42:18;3.27;;;3.03;;
17614;SDS011;8926;49.720;6.576;2023-07-24T08:44:45;4.57;;;3.50;;
17614;SDS011;8926;49.720;6.576;2023-07-24T08:47:10;4.60;;;4.20;;
17614;SDS011;8926;49.720;6.576;2023-07-24T08:49:38;4.10;;;3.80;;
17614;SDS011;8926;49.720;6.576;2023-07-24T08:52:05;3.47;;;3.23;;
17614;SDS011;8926;49.720;6.576;2023-07-24T08:54:32;3.00;;;2.80;;
17614;SDS011;8926;49.720;6.576;2023-07-24T08:57:00;2.70;;;2.50;;
17614;SDS011;8926;49.720;6.576;2023-07-24T08:59:26;2.60;;;2.40;;
17614;SDS011;8926;49.720;6.576;2023-07-24T09:01:52;3.00;;;2.80;;
17614;SDS011;8926;49.720;6.576;2023-07-24T09:04:17;2.83;;;2.70;;
17614;SDS011;8926;49.720;6.576;2023-07-24T09:06:43;3.40;;;3.10;;
17614;SDS011;8926;49.720;6.576;2023-07-24T09:09:13;3.60;;;3.30;;
17614;SDS011;8926;49.720;6.576;2023-07-24T09:11:49;3.60;;;3.30;;
17614;SDS011;8926;49.720;6.576;2023-07-24T09:14:23;3.57;;;3.03;;
17614;SDS011;8926;49.720;6.576;2023-07-24T09:16:50;3.40;;;3.10;;
17614;SDS011;8926;49.720;6.576;2023-07-24T09:19:27;3.40;;;3.20;;
17614;SDS011;8926;49.720;6.576;2023-07-24T09:21:52;3.20;;;3.00;;
17614;SDS011;8926;49.720;6.576;2023-07-24T09:24:17;3.80;;;3.50;;
17614;SDS011;8926;49.720;6.576;2023-07-24T09:26:46;3.50;;;3.20;;
17614;SDS011;8926;49.720;6.576;2023-07-24T09:29:13;3.37;;;3.17;;
17614;SDS011;8926;49.720;6.576;2023-07-24T09:31:38;3.43;;;2.50;;
17614;SDS011;8926;49.720;6.576;2023-07-24T09:34:03;3.67;;;3.37;;
17614;SDS011;8926;49.720;6.576;2023-07-24T09:36:37;3.50;;;3.17;;
17614;SDS011;8926;49.720;6.576;2023-07-24T09:39:03;3.57;;;3.00;;
17614;SDS011;8926;49.720;6.576;2023-07-24T09:41:31;4.10;;;3.60;;
17614;SDS011;8926;49.720;6.576;2023-07-24T09:43:59;3.67;;;3.37;;
17614;SDS011;8926;49.720;6.576;2023-07-24T09:46:24;3.20;;;2.90;;
17614;SDS011;8926;49.720;6.576;2023-07-24T09:48:51;3.30;;;3.00;;
17614;SDS011;8926;49.720;6.576;2023-07-24T09:51:16;3.50;;;3.20;;
17614;SDS011;8926;49.720;6.576;2023-07-24T09:53:47;3.10;;;2.80;;
17614;SDS011;8926;49.720;6.576;2023-07-24T09:56:20;2.53;;;2.43;;
17614;SDS011;8926;49.720;6.576;2023-07-24T09:58:46;3.13;;;2.93;;
17614;SDS011;8926;49.720;6.576;2023-07-24T10:01:14;3.40;;;2.70;;
17614;SDS011;8926;49.720;6.576;2023-07-24T10:03:43;3.57;;;3.17;;
17614;SDS011;8926;49.720;6.576;2023-07-24T10:06:11;3.47;;;3.17;;
17614;SDS011;8926;49.720;6.576;2023-07-24T10:08:39;3.60;;;3.30;;
17614;SDS011;8926;49.720;6.576;2023-07-24T10:11:05;3.20;;;2.90;;
17614;SDS011;8926;49.720;6.576;2023-07-24T10:13:32;4.80;;;3.40;;
17614;SDS011;8926;49.720;6.576;2023-07-24T10:16:01;2.80;;;2.60;;
17614;SDS011;8926;49.720;6.576;2023-07-24T10:18:28;3.20;;;2.90;;
17614;SDS011;8926;49.720;6.576;2023-07-24T10:21:04;3.43;;;2.83;;
17614;SDS011;8926;49.720;6.576;2023-07-24T10:23:33;3.07;;;2.87;;
17614;SDS011;8926;49.720;6.576;2023-07-24T10:26:03;3.43;;;2.90;;
17614;SDS011;8926;49.720;6.576;2023-07-24T10:28:33;2.67;;;2.47;;
17614;SDS011;8926;49.720;6.576;2023-07-24T10:31:03;2.60;;;2.17;;
17614;SDS011;8926;49.720;6.576;2023-07-24T10:33:33;2.53;;;2.33;;
17614;SDS011;8926;49.720;6.576;2023-07-24T10:36:06;2.60;;;2.40;;
17614;SDS011;8926;49.720;6.576;2023-07-24T10:38:36;2.77;;;2.17;;
17614;SDS011;8926;49.720;6.576;2023-07-24T10:41:03;3.20;;;2.90;;
17614;SDS011;8926;49.720;6.576;2023-07-24T10:43:39;3.53;;;2.60;;
17614;SDS011;8926;49.720;6.576;2023-07-24T10:46:12;2.37;;;2.27;;
17614;SDS011;8926;49.720;6.576;2023-07-24T10:48:42;2.13;;;1.87;;
17614;SDS011;8926;49.720;6.576;2023-07-24T10:51:09;2.60;;;2.40;;
17614;SDS011;8926;49.720;6.576;2023-07-24T10:53:36;2.10;;;2.00;;
17614;SDS011;8926;49.720;6.576;2023-07-24T10:56:02;2.30;;;2.13;;
17614;SDS011;8926;49.720;6.576;2023-07-24T10:58:29;2.13;;;2.03;;
17614;SDS011;8926;49.720;6.576;2023-07-24T11:00:55;2.70;;;2.50;;
17614;SDS011;8926;49.720;6.576;2023-07-24T11:03:21;3.00;;;2.80;;
17614;SDS011;8926;49.720;6.576;2023-07-24T11:05:46;2.57;;;2.37;;
17614;SDS011;8926;49.720;6.576;2023-07-24T11:08:12;2.73;;;2.53;;
17614;SDS011;8926;49.720;6.576;2023-07-24T11:10:49;2.30;;;2.20;;
17614;SDS011;8926;49.720;6.576;2023-07-24T11:13:20;2.30;;;2.20;;
17614;SDS011;8926;49.720;6.576;2023-07-24T11:15:48;3.00;;;2.80;;
17614;SDS011;8926;49.720;6.576;2023-07-24T11:18:14;2.60;;;2.40;;
17614;SDS011;8926;49.720;6.576;2023-07-24T11:20:44;2.00;;;1.90;;
17614;SDS011;8926;49.720;6.576;2023-07-24T11:23:11;2.77;;;2.10;;
17614;SDS011;8926;49.720;6.576;2023-07-24T11:25:37;1.87;;;1.77;;
17614;SDS011;8926;49.720;6.576;2023-07-24T11:28:04;2.20;;;2.10;;
17614;SDS011;8926;49.720;6.576;2023-07-24T11:30:30;2.37;;;2.13;;
17614;SDS011;8926;49.720;6.576;2023-07-24T11:32:56;2.80;;;2.60;;
17614;SDS011;8926;49.720;6.576;2023-07-24T11:35:24;3.93;;;2.97;;
17614;SDS011;8926;49.720;6.576;2023-07-24T11:37:50;2.73;;;2.53;;
17614;SDS011;8926;49.720;6.576;2023-07-24T11:40:16;2.87;;;2.67;;
17614;SDS011;8926;49.720;6.576;2023-07-24T11:42:44;3.17;;;2.87;;
17614;SDS011;8926;49.720;6.576;2023-07-24T11:45:09;3.73;;;2.70;;
17614;SDS011;8926;49.720;6.576;2023-07-24T11:47:45;2.83;;;2.60;;
17614;SDS011;8926;49.720;6.576;2023-07-24T11:50:11;3.40;;;3.10;;
17614;SDS011;8926;49.720;6.576;2023-07-24T11:52:37;2.97;;;2.70;;
17614;SDS011;8926;49.720;6.576;2023-07-24T11:55:04;3.23;;;2.90;;
17614;SDS011;8926;49.720;6.576;2023-07-24T11:57:29;3.37;;;3.07;;
17614;SDS011;8926;49.720;6.576;2023-07-24T11:59:55;3.20;;;2.90;;
17614;SDS011;8926;49.720;6.576;2023-07-24T12:02:23;3.40;;;3.10;;
17614;SDS011;8926;49.720;6.576;2023-07-24T12:04:57;2.90;;;2.67;;
17614;SDS011;8926;49.720;6.576;2023-07-24T12:07:28;3.27;;;2.70;;
17614;SDS011;8926;49.720;6.576;2023-07-24T12:09:57;2.20;;;2.10;;
17614;SDS011;8926;49.720;6.576;2023-07-24T12:12:23;2.13;;;2.03;;
17614;SDS011;8926;49.720;6.576;2023-07-24T12:14:48;2.30;;;2.10;;
17614;SDS011;8926;49.720;6.576;2023-07-24T12:17:17;1.70;;;1.60;;
17614;SDS011;8926;49.720;6.576;2023-07-24T12:19:43;1.50;;;1.40;;
17614;SDS011;8926;49.720;6.576;2023-07-24T12:22:08;2.40;;;2.20;;
17614;SDS011;8926;49.720;6.576;2023-07-24T12:24:34;1.67;;;1.57;;
17614;SDS011;8926;49.720;6.576;2023-07-24T12:26:59;1.53;;;1.43;;
17614;SDS011;8926;49.720;6.576;2023-07-24T12:29:25;1.20;;;1.20;;
17614;SDS011;8926;49.720;6.576;2023-07-24T12:31:50;1.73;;;1.40;;
17614;SDS011;8926;49.720;6.576;2023-07-24T12:34:16;1.47;;;1.37;;
17614;SDS011;8926;49.720;6.576;2023-07-24T12:36:41;2.20;;;1.67;;
17614;SDS011;8926;49.720;6.576;2023-07-24T12:39:06;1.10;;;1.10;;
17614;SDS011;8926;49.720;6.576;2023-07-24T12:41:32;1.77;;;1.63;;
17614;SDS011;8926;49.720;6.576;2023-07-24T12:43:57;1.80;;;1.70;;
17614;SDS011;8926;49.720;6.576;2023-07-24T12:46:22;2.10;;;1.90;;
17614;SDS011;8926;49.720;6.576;2023-07-24T12:48:48;1.60;;;1.50;;
17614;SDS011;8926;49.720;6.576;2023-07-24T12:51:13;1.63;;;1.50;;
17614;SDS011;8926;49.720;6.576;2023-07-24T12:53:38;3.50;;;1.80;;
17614;SDS011;8926;49.720;6.576;2023-07-24T12:56:03;1.70;;;1.60;;
17614;SDS011;8926;49.720;6.576;2023-07-24T12:58:29;1.40;;;1.30;;
17614;SDS011;8926;49.720;6.576;2023-07-24T13:00:54;1.97;;;1.30;;
17614;SDS011;8926;49.720;6.576;2023-07-24T13:03:19;1.27;;;1.20;;
17614;SDS011;8926;49.720;6.576;2023-07-24T13:05:46;1.00;;;1.00;;
17614;SDS011;8926;49.720;6.576;2023-07-24T13:08:12;1.03;;;1.00;;
17614;SDS011;8926;49.720;6.576;2023-07-24T13:10:37;1.00;;;1.00;;
17614;SDS011;8926;49.720;6.576;2023-07-24T13:13:02;1.20;;;1.20;;
17614;SDS011;8926;49.720;6.576;2023-07-24T13:15:28;1.20;;;1.13;;
17614;SDS011;8926;49.720;6.576;2023-07-24T13:17:54;3.70;;;1.20;;
17614;SDS011;8926;49.720;6.576;2023-07-24T13:20:19;1.37;;;1.20;;
17614;SDS011;8926;49.720;6.576;2023-07-24T13:22:45;1.10;;;1.03;;
17614;SDS011;8926;49.720;6.576;2023-07-24T13:25:11;0.97;;;0.97;;
17614;SDS011;8926;49.720;6.576;2023-07-24T13:27:37;1.50;;;1.40;;
17614;SDS011;8926;49.720;6.576;2023-07-24T13:30:02;1.10;;;1.00;;
17614;SDS011;8926;49.720;6.576;2023-07-24T13:32:28;1.10;;;1.10;;
17614;SDS011;8926;49.720;6.576;2023-07-24T13:34:54;1.20;;;1.20;;
17614;SDS011;8926;49.720;6.576;2023-07-24T13:37:20;1.40;;;1.30;;
17614;SDS011;8926;49.720;6.576;2023-07-24T13:39:46;1.83;;;1.47;;
17614;SDS011;8926;49.720;6.576;2023-07-24T13:42:11;1.30;;;1.27;;
17614;SDS011;8926;49.720;6.576;2023-07-24T13:44:37;1.60;;;1.20;;
17614;SDS011;8926;49.720;6.576;2023-07-24T13:47:02;1.10;;;1.10;;
17614;SDS011;8926;49.720;6.576;2023-07-24T13:49:27;1.50;;;1.40;;
17614;SDS011;8926;49.720;6.576;2023-07-24T13:51:53;1.33;;;1.07;;
17614;SDS011;8926;49.720;6.576;2023-07-24T13:54:18;1.17;;;1.10;;
17614;SDS011;8926;49.720;6.576;2023-07-24T13:56:43;1.73;;;1.50;;
17614;SDS011;8926;49.720;6.576;2023-07-24T13:59:08;2.00;;;1.40;;
17614;SDS011;8926;49.720;6.576;2023-07-24T14:01:34;1.10;;;1.10;;
17614;SDS011;8926;49.720;6.576;2023-07-24T14:03:59;1.20;;;1.10;;
17614;SDS011;8926;49.720;6.576;2023-07-24T14:06:25;1.40;;;1.33;;
17614;SDS011;8926;49.720;6.576;2023-07-24T14:08:51;1.30;;;1.20;;
17614;SDS011;8926;49.720;6.576;2023-07-24T14:11:16;1.67;;;1.57;;
17614;SDS011;8926;49.720;6.576;2023-07-24T14:13:41;1.57;;;1.30;;
17614;SDS011;8926;49.720;6.576;2023-07-24T14:16:06;1.57;;;1.23;;
17614;SDS011;8926;49.720;6.576;2023-07-24T14:18:32;1.57;;;1.47;;
17614;SDS011;8926;49.720;6.576;2023-07-24T14:20:57;1.70;;;1.60;;
17614;SDS011;8926;49.720;6.576;2023-07-24T14:23:24;1.17;;;1.10;;
17614;SDS011;8926;49.720;6.576;2023-07-24T14:25:49;1.40;;;1.30;;
17614;SDS011;8926;49.720;6.576;2023-07-24T14:28:14;1.67;;;1.40;;
17614;SDS011;8926;49.720;6.576;2023-07-24T14:30:40;1.60;;;1.50;;
17614;SDS011;8926;49.720;6.576;2023-07-24T14:33:05;1.37;;;1.23;;
17614;SDS011;8926;49.720;6.576;2023-07-24T14:35:30;2.50;;;1.40;;
17614;SDS011;8926;49.720;6.576;2023-07-24T14:37:56;1.60;;;1.50;;
17614;SDS011;8926;49.720;6.576;2023-07-24T14:40:21;1.33;;;1.23;;
17614;SDS011;8926;49.720;6.576;2023-07-24T14:42:46;1.00;;;1.00;;
17614;SDS011;8926;49.720;6.576;2023-07-24T14:45:11;6.03;;;1.30;;
17614;SDS011;8926;49.720;6.576;2023-07-24T14:47:37;1.30;;;1.30;;
17614;SDS011;8926;49.720;6.576;2023-07-24T14:50:02;1.30;;;1.20;;
17614;SDS011;8926;49.720;6.576;2023-07-24T14:52:27;1.50;;;1.40;;
17614;SDS011;8926;49.720;6.576;2023-07-24T14:54:53;1.23;;;1.20;;
17614;SDS011;8926;49.720;6.576;2023-07-24T14:57:18;1.27;;;1.20;;